createdAt,value
2023-04-03T00:00:42.559Z,102694.94
2023-04-03T00:03:12.447Z,102698.31
2023-04-03T00:05:42.531Z,102696.06
2023-04-03T00:08:12.531Z,102696.50
2023-04-03T00:10:45.438Z,102698.03
2023-04-03T00:13:15.961Z,102699.50
2023-04-03T00:15:46.280Z,102691.28
2023-04-03T00:18:16.373Z,102696.53
2023-04-03T00:20:46.527Z,102697.88
2023-04-03T00:23:16.504Z,102704.75
2023-04-03T00:25:49.292Z,102689.44
2023-04-03T00:28:19.513Z,102694.25
2023-04-03T00:30:49.395Z,102691.38
2023-04-03T00:33:22.941Z,102694.16
2023-04-03T00:35:53.299Z,102684.88
2023-04-03T00:38:23.422Z,102688.63
2023-04-03T00:40:56.211Z,102694.44
2023-04-03T00:43:28.440Z,102687.84
2023-04-03T00:46:00.173Z,102691.44
2023-04-03T00:48:35.196Z,102694.56
2023-04-03T00:51:06.483Z,102696.03
2023-04-03T00:53:39.357Z,102696.66
2023-04-03T00:56:16.332Z,102696.22
2023-04-03T00:58:50.130Z,102692.88
2023-04-03T01:01:25.600Z,102697.78
2023-04-03T01:03:55.531Z,102696.75
2023-04-03T01:06:32.134Z,102703.97
2023-04-03T01:09:03.134Z,102697.78
2023-04-03T01:11:35.690Z,102708.16
2023-04-03T01:14:07.217Z,102704.03
2023-04-03T01:16:37.226Z,102710.69
2023-04-03T01:19:09.780Z,102711.16
2023-04-03T01:22:05.172Z,102710.38
2023-04-03T01:24:40.271Z,102708.72
2023-04-03T01:27:14.675Z,102711.03
2023-04-03T01:29:46.108Z,102711.25
2023-04-03T01:32:18.607Z,102715.41
2023-04-03T01:34:48.575Z,102719.59
2023-04-03T01:37:18.521Z,102721.66
2023-04-03T01:39:48.360Z,102722.09
2023-04-03T01:42:18.375Z,102728.72
2023-04-03T01:44:48.586Z,102724.84
2023-04-03T01:47:21.196Z,102726.72
2023-04-03T01:49:51.039Z,102724.44
2023-04-03T01:52:20.918Z,102719.53
2023-04-03T01:54:51.719Z,102723.84
2023-04-03T01:57:21.638Z,102724.31
2023-04-03T01:59:52.428Z,102724.72
2023-04-03T02:02:25.080Z,102728.03
2023-04-03T02:04:56.009Z,102732.13
2023-04-03T02:07:26.077Z,102722.22
2023-04-03T02:09:56.214Z,102734.16
2023-04-03T02:12:26.102Z,102734.16
2023-04-03T02:14:56.236Z,102732.50
2023-04-03T02:17:28.955Z,102730.03
2023-04-03T02:19:58.779Z,102734.00
2023-04-03T02:22:28.628Z,102736.28
2023-04-03T02:24:58.438Z,102737.53
2023-04-03T02:27:28.360Z,102745.00
2023-04-03T02:29:58.224Z,102741.69
2023-04-03T02:32:30.816Z,102743.78
2023-04-03T02:35:00.657Z,102742.56
2023-04-03T02:37:31.233Z,102736.00
2023-04-03T02:40:01.089Z,102731.47
2023-04-03T02:42:30.914Z,102731.94
2023-04-03T02:45:01.638Z,102732.34
2023-04-03T02:47:34.135Z,102730.69
2023-04-03T02:50:04.021Z,102733.59
2023-04-03T02:52:33.846Z,102731.16
2023-04-03T02:55:03.958Z,102743.94
2023-04-03T02:57:33.907Z,102742.28
2023-04-03T03:00:04.394Z,102738.19
2023-04-03T03:02:36.923Z,102751.81
2023-04-03T03:05:07.750Z,102750.59
2023-04-03T03:07:37.794Z,102753.50
2023-04-03T03:10:08.426Z,102750.59
2023-04-03T03:12:38.438Z,102758.41
2023-04-03T03:15:09.523Z,102753.69
2023-04-03T03:17:42.200Z,102755.94
2023-04-03T03:20:13.014Z,102762.56
2023-04-03T03:22:42.806Z,102761.34
2023-04-03T03:25:13.561Z,102760.16
2023-04-03T03:27:43.848Z,102757.66
2023-04-03T03:30:14.517Z,102757.06
2023-04-03T03:32:47.059Z,102755.63
2023-04-03T03:35:17.162Z,102761.22
2023-04-03T03:37:47.002Z,102756.47
2023-04-03T03:40:17.196Z,102758.75
2023-04-03T03:42:48.019Z,102758.16
2023-04-03T03:45:17.970Z,102756.50
2023-04-03T03:47:50.561Z,102752.19
2023-04-03T03:50:20.570Z,102751.97
2023-04-03T03:52:50.610Z,102754.84
2023-04-03T03:55:20.932Z,102753.81
2023-04-03T03:57:50.771Z,102748.47
2023-04-03T04:00:21.357Z,102753.22
2023-04-03T04:02:54.361Z,102760.63
2023-04-03T04:05:25.716Z,102760.63
2023-04-03T04:07:55.681Z,102751.16
2023-04-03T04:10:25.473Z,102757.56
2023-04-03T04:12:57.347Z,102765.19
2023-04-03T04:15:28.357Z,102765.84
2023-04-03T04:18:00.975Z,102768.91
2023-04-03T04:20:30.871Z,102768.91
2023-04-03T04:23:00.765Z,102774.25
2023-04-03T04:25:30.591Z,102766.84
2023-04-03T04:28:00.464Z,102779.22
2023-04-03T04:30:30.343Z,102786.63
2023-04-03T04:33:02.881Z,102785.00
2023-04-03T04:35:33.052Z,102779.84
2023-04-03T04:38:03.596Z,102776.34
2023-04-03T04:40:33.497Z,102778.41
2023-04-03T04:43:03.324Z,102794.50
2023-04-03T04:45:33.253Z,102791.81
2023-04-03T04:48:05.900Z,102795.53
2023-04-03T04:50:35.909Z,102797.41
2023-04-03T04:53:06.261Z,102801.91
2023-04-03T04:55:36.322Z,102808.31
2023-04-03T04:58:06.570Z,102811.41
2023-04-03T05:00:36.469Z,102808.13
2023-04-03T05:03:08.944Z,102811.81
2023-04-03T05:05:39.253Z,102808.53
2023-04-03T05:08:09.841Z,102813.88
2023-04-03T05:10:41.882Z,102804.41
2023-04-03T05:13:11.890Z,102814.13
2023-04-03T05:15:41.803Z,102808.75
2023-04-03T05:18:14.410Z,102812.69
2023-04-03T05:20:44.609Z,102820.72
2023-04-03T05:23:14.702Z,102824.63
2023-04-03T05:25:48.213Z,102818.88
2023-04-03T05:28:18.148Z,102820.06
2023-04-03T05:30:47.986Z,102815.53
2023-04-03T05:33:20.478Z,102821.72
2023-04-03T05:35:50.683Z,102819.03
2023-04-03T05:38:21.158Z,102826.91
2023-04-03T05:40:51.088Z,102827.72
2023-04-03T05:43:21.031Z,102832.25
2023-04-03T05:45:51.770Z,102829.97
2023-04-03T05:48:24.375Z,102836.81
2023-04-03T05:50:56.463Z,102846.47
2023-04-03T05:53:31.219Z,102846.47
2023-04-03T05:56:01.255Z,102850.59
2023-04-03T05:58:31.284Z,102846.06
2023-04-03T06:01:01.196Z,102853.47
2023-04-03T06:03:33.928Z,102854.72
2023-04-03T06:06:05.808Z,102858.84
2023-04-03T06:08:36.149Z,102863.59
2023-04-03T06:11:06.525Z,102865.22
2023-04-03T06:13:36.354Z,102867.09
2023-04-03T06:16:06.816Z,102862.94
2023-04-03T06:18:39.259Z,102869.13
2023-04-03T06:21:09.349Z,102861.28
2023-04-03T06:23:39.563Z,102861.66
2023-04-03T06:26:09.528Z,102858.13
2023-04-03T06:28:39.329Z,102860.56
2023-04-03T06:31:09.986Z,102849.41
2023-04-03T06:33:42.615Z,102861.94
2023-04-03T06:36:14.866Z,102847.03
2023-04-03T06:38:44.822Z,102847.03
2023-04-03T06:41:14.740Z,102849.03
2023-04-03T06:43:44.669Z,102852.91
2023-04-03T06:46:18.495Z,102856.25
2023-04-03T06:48:54.546Z,102852.78
2023-04-03T06:51:26.515Z,102854.03
2023-04-03T06:53:58.109Z,102852.16
2023-04-03T06:56:29.137Z,102858.75
2023-04-03T06:59:01.208Z,102863.31
2023-04-03T07:01:32.827Z,102871.56
2023-04-03T07:04:05.408Z,102868.06
2023-04-03T07:06:35.461Z,102862.53
2023-04-03T07:09:06.405Z,102865.09
2023-04-03T07:11:36.259Z,102864.31
2023-04-03T07:14:07.342Z,102870.66
2023-04-03T07:16:40.023Z,102869.38
2023-04-03T07:19:13.476Z,102877.47
2023-04-03T07:21:44.744Z,102884.97
2023-04-03T07:24:16.601Z,102879.25
2023-04-03T07:26:46.987Z,102880.97
2023-04-03T07:29:16.989Z,102886.22
2023-04-03T07:31:46.923Z,102888.31
2023-04-03T07:34:19.640Z,102889.78
2023-04-03T07:36:49.525Z,102891.28
2023-04-03T07:39:19.376Z,102889.50
2023-04-03T07:41:49.434Z,102882.28
2023-04-03T07:44:19.269Z,102889.47
2023-04-03T07:46:49.659Z,102887.69
2023-04-03T07:49:24.383Z,102883.13
2023-04-03T07:51:54.501Z,102887.66
2023-04-03T07:54:24.359Z,102880.63
2023-04-03T07:56:54.243Z,102890.16
2023-04-03T07:59:24.133Z,102897.66
2023-04-03T08:01:53.963Z,102891.13
2023-04-03T08:04:27.442Z,102886.00
2023-04-03T08:06:57.753Z,102891.19
2023-04-03T08:09:27.649Z,102882.91
2023-04-03T08:11:57.880Z,102893.06
2023-04-03T08:14:28.251Z,102885.59
2023-04-03T08:16:58.560Z,102896.50
2023-04-03T08:19:31.500Z,102888.34
2023-04-03T08:22:04.082Z,102891.94
2023-04-03T08:24:34.009Z,102897.75
2023-04-03T08:27:04.824Z,102882.97
2023-04-03T08:29:34.839Z,102883.03
2023-04-03T08:32:05.075Z,102889.13
2023-04-03T08:34:40.619Z,102892.41
2023-04-03T08:37:10.576Z,102895.00
2023-04-03T08:39:40.643Z,102892.94
2023-04-03T08:42:20.194Z,102897.94
2023-04-03T08:44:56.643Z,102898.53
2023-04-03T08:47:31.579Z,102893.19
2023-04-03T08:50:10.777Z,102891.91
2023-04-03T08:52:44.416Z,102888.22
2023-04-03T08:55:26.912Z,102892.28
2023-04-03T08:58:05.032Z,102892.53
2023-04-03T09:00:41.722Z,102884.41
2023-04-03T09:03:17.141Z,102883.53
2023-04-03T09:05:55.163Z,102887.34
2023-04-03T09:08:28.886Z,102894.94
2023-04-03T09:11:10.020Z,102894.63
2023-04-03T09:13:49.074Z,102892.75
2023-04-03T09:16:30.382Z,102901.91
2023-04-03T09:19:10.578Z,102894.25
2023-04-03T09:21:44.794Z,102900.84
2023-04-03T09:24:17.142Z,102896.78
2023-04-03T09:26:50.158Z,102901.66
2023-04-03T09:29:24.264Z,102903.19
2023-04-03T09:32:00.239Z,102898.16
2023-04-03T09:34:33.662Z,102898.22
2023-04-03T09:37:09.903Z,102883.78
2023-04-03T09:39:54.734Z,102894.38
2023-04-03T09:42:26.784Z,102888.72
2023-04-03T09:45:00.390Z,102889.28
2023-04-03T09:47:34.421Z,102877.09
2023-04-03T09:50:25.167Z,102906.16
2023-04-03T09:52:58.062Z,102884.38
2023-04-03T09:55:31.073Z,102891.81
2023-04-03T09:58:03.246Z,102885.78
2023-04-03T10:00:37.786Z,102883.06
2023-04-03T10:03:08.669Z,102880.94
2023-04-03T10:05:42.262Z,102883.34
2023-04-03T10:08:25.236Z,102883.09
2023-04-03T10:11:14.951Z,102877.66
2023-04-03T10:13:57.393Z,102890.72
2023-04-03T10:16:31.694Z,102874.13
2023-04-03T10:19:17.077Z,102875.75
2023-04-03T10:21:52.736Z,102866.19
2023-04-03T10:24:33.111Z,102880.63
2023-04-03T10:27:11.484Z,102861.34
2023-04-03T10:29:46.902Z,102873.84
2023-04-03T10:32:41.926Z,102858.00
2023-04-03T10:35:21.299Z,102852.34
2023-04-03T10:38:03.778Z,102845.53
2023-04-03T10:40:43.887Z,102850.69
2023-04-03T10:43:22.062Z,102842.53
2023-04-03T10:46:04.233Z,102842.56
2023-04-03T10:48:53.497Z,102845.53
2023-04-03T10:51:33.540Z,102839.56
2023-04-03T10:54:12.558Z,102830.84
2023-04-03T10:56:55.338Z,102831.06
2023-04-03T10:59:35.269Z,102826.16
2023-04-03T11:02:10.952Z,102829.16
2023-04-03T11:04:43.987Z,102833.50
2023-04-03T11:07:19.267Z,102822.59
2023-04-03T11:09:53.144Z,102818.16
2023-04-03T11:12:31.406Z,102823.88
2023-04-03T11:15:01.771Z,102816.94
2023-04-03T11:17:37.952Z,102808.16
2023-04-03T11:20:14.859Z,102813.63
2023-04-03T11:22:47.232Z,102808.69
2023-04-03T11:25:24.064Z,102799.75
2023-04-03T11:28:00.106Z,102807.75
2023-04-03T11:30:35.865Z,102806.13
2023-04-03T11:33:34.577Z,102801.63
2023-04-03T11:36:18.923Z,102797.00
2023-04-03T11:38:58.583Z,102803.31
2023-04-03T11:41:32.242Z,102790.50
2023-04-03T11:44:10.193Z,102799.81
2023-04-03T11:46:58.917Z,102805.78
2023-04-03T11:50:01.119Z,102793.16
2023-04-03T11:53:01.963Z,102781.75
2023-04-03T11:55:57.817Z,102790.88
2023-04-03T11:58:29.262Z,102780.44
2023-04-03T12:01:15.523Z,102782.13
2023-04-03T12:04:01.828Z,102790.81
2023-04-03T12:07:08.087Z,102783.00
2023-04-03T12:10:06.645Z,102773.59
2023-04-03T12:12:44.478Z,102776.59
2023-04-03T12:15:53.111Z,102774.38
2023-04-03T12:18:59.772Z,102770.59
2023-04-03T12:22:27.674Z,102764.66
2023-04-03T12:24:57.719Z,102773.84
2023-04-03T12:27:38.393Z,102768.41
2023-04-03T12:30:20.572Z,102774.41
2023-04-03T12:33:15.831Z,102753.31
2023-04-03T12:36:01.979Z,102754.38
2023-04-03T12:39:04.787Z,102758.13
2023-04-03T12:41:41.865Z,102741.97
2023-04-03T12:44:29.024Z,102738.50
2023-04-03T12:46:58.974Z,102745.59
2023-04-03T12:49:39.578Z,102742.34
2023-04-03T12:52:23.598Z,102728.81
2023-04-03T12:54:54.500Z,102738.00
2023-04-03T12:57:25.965Z,102734.38
2023-04-03T12:59:56.124Z,102729.00
2023-04-03T13:02:29.293Z,102716.06
2023-04-03T13:05:02.483Z,102717.16
2023-04-03T13:07:39.498Z,102710.69
2023-04-03T13:10:20.909Z,102712.38
2023-04-03T13:12:53.692Z,102712.81
2023-04-03T13:15:26.884Z,102717.97
2023-04-03T13:17:57.901Z,102720.94
2023-04-03T13:20:30.712Z,102702.41
2023-04-03T13:23:07.940Z,102716.63
2023-04-03T13:25:40.680Z,102704.06
2023-04-03T13:28:15.310Z,102697.78
2023-04-03T13:30:59.215Z,102690.75
2023-04-03T13:33:32.626Z,102702.72
2023-04-03T13:36:06.572Z,102705.13
2023-04-03T13:38:39.453Z,102705.59
2023-04-03T13:41:27.295Z,102710.66
2023-04-03T13:44:03.434Z,102695.78
2023-04-03T13:46:40.373Z,102706.69
2023-04-03T13:49:23.950Z,102685.84
2023-04-03T13:52:04.441Z,102700.47
2023-04-03T13:54:42.706Z,102688.97
2023-04-03T13:57:18.028Z,102683.47
2023-04-03T13:59:48.255Z,102688.66
2023-04-03T14:02:21.989Z,102685.03
2023-04-03T14:04:59.523Z,102680.19
2023-04-03T14:07:30.609Z,102674.34
2023-04-03T14:10:06.205Z,102679.25
2023-04-03T14:12:41.830Z,102678.06
2023-04-03T14:15:21.926Z,102671.53
2023-04-03T14:17:52.791Z,102669.38
2023-04-03T14:20:27.050Z,102673.09
2023-04-03T14:22:58.259Z,102659.78
2023-04-03T14:25:31.037Z,102656.41
2023-04-03T14:28:01.397Z,102659.88
2023-04-03T14:30:35.278Z,102650.97
2023-04-03T14:33:05.454Z,102652.53
2023-04-03T14:35:37.196Z,102644.34
2023-04-03T14:38:09.733Z,102640.94
2023-04-03T14:40:42.552Z,102644.56
2023-04-03T14:43:16.403Z,102645.13
2023-04-03T14:45:46.690Z,102641.38
2023-04-03T14:48:23.287Z,102641.53
2023-04-03T14:51:05.309Z,102640.13
2023-04-03T14:53:39.083Z,102631.38
2023-04-03T14:56:16.624Z,102639.25
2023-04-03T14:58:50.563Z,102634.53
2023-04-03T15:01:21.492Z,102634.09
2023-04-03T15:03:51.786Z,102635.31
2023-04-03T15:06:22.177Z,102629.34
2023-04-03T15:08:52.278Z,102623.72
2023-04-03T15:11:24.858Z,102625.25
2023-04-03T15:13:54.800Z,102622.53
2023-04-03T15:16:33.409Z,102622.56
2023-04-03T15:19:03.365Z,102619.56
2023-04-03T15:21:33.331Z,102623.16
2023-04-03T15:24:03.260Z,102628.94
2023-04-03T15:26:36.657Z,102627.06
2023-04-03T15:29:07.597Z,102623.00
2023-04-03T15:31:37.592Z,102634.53
2023-04-03T15:34:07.955Z,102630.97
2023-04-03T15:36:37.771Z,102624.31
2023-04-03T15:39:07.693Z,102618.75
2023-04-03T15:41:40.310Z,102633.53
2023-04-03T15:44:10.228Z,102621.28
2023-04-03T15:46:40.116Z,102620.72
2023-04-03T15:49:10.068Z,102620.38
2023-04-03T15:51:40.121Z,102625.91
2023-04-03T15:54:10.031Z,102621.34
2023-04-03T15:56:42.574Z,102625.06
2023-04-03T15:59:12.523Z,102639.28
2023-04-03T16:01:43.560Z,102636.66
2023-04-03T16:04:15.497Z,102641.34
2023-04-03T16:06:46.645Z,102638.16
2023-04-03T16:09:16.984Z,102637.91
2023-04-03T16:11:49.398Z,102632.97
2023-04-03T16:14:19.365Z,102647.94
2023-04-03T16:16:49.338Z,102636.53
2023-04-03T16:19:19.662Z,102637.66
2023-04-03T16:21:49.569Z,102623.00
2023-04-03T16:24:19.611Z,102635.09
2023-04-03T16:26:52.316Z,102624.44
2023-04-03T16:29:22.234Z,102626.09
2023-04-03T16:31:53.290Z,102636.78
2023-04-03T16:34:23.281Z,102643.03
2023-04-03T16:36:53.609Z,102638.13
2023-04-03T16:39:23.565Z,102637.69
2023-04-03T16:41:56.334Z,102638.78
2023-04-03T16:44:26.592Z,102637.72
2023-04-03T16:46:56.615Z,102644.53
2023-04-03T16:49:26.628Z,102643.72
2023-04-03T16:51:56.721Z,102637.69
2023-04-03T16:54:26.830Z,102643.19
2023-04-03T16:56:59.459Z,102641.28
2023-04-03T16:59:29.899Z,102653.25
2023-04-03T17:01:59.786Z,102652.41
2023-04-03T17:04:30.391Z,102658.94
2023-04-03T17:07:01.293Z,102649.16
2023-04-03T17:09:32.572Z,102654.59
2023-04-03T17:12:05.797Z,102655.16
2023-04-03T17:14:35.765Z,102657.06
2023-04-03T17:17:07.308Z,102660.59
2023-04-03T17:19:37.946Z,102654.66
2023-04-03T17:22:07.983Z,102659.25
2023-04-03T17:24:37.880Z,102657.38
2023-04-03T17:27:10.524Z,102656.25
2023-04-03T17:29:40.778Z,102654.09
2023-04-03T17:32:10.676Z,102659.50
2023-04-03T17:34:40.897Z,102662.22
2023-04-03T17:37:11.011Z,102664.66
2023-04-03T17:39:41.237Z,102663.00
2023-04-03T17:42:13.845Z,102667.38
2023-04-03T17:44:44.360Z,102656.75
2023-04-03T17:47:14.318Z,102662.13
2023-04-03T17:49:44.278Z,102658.88
2023-04-03T17:52:14.485Z,102662.94
2023-04-03T17:54:44.609Z,102675.34
2023-04-03T17:57:17.176Z,102671.03
2023-04-03T17:59:47.145Z,102675.63
2023-04-03T18:02:17.091Z,102668.56
2023-04-03T18:04:46.974Z,102669.03
2023-04-03T18:07:17.188Z,102665.75
2023-04-03T18:09:50.826Z,102673.34
2023-04-03T18:12:23.727Z,102673.34
2023-04-03T18:14:53.707Z,102670.59
2023-04-03T18:17:23.613Z,102673.78
2023-04-03T18:19:54.190Z,102674.59
2023-04-03T18:22:27.340Z,102667.75
2023-04-03T18:24:57.485Z,102672.59
2023-04-03T18:27:31.342Z,102673.09
2023-04-03T18:30:04.697Z,102675.22
2023-04-03T18:32:34.972Z,102669.78
2023-04-03T18:35:04.935Z,102671.09
2023-04-03T18:37:34.908Z,102673.00
2023-04-03T18:40:05.778Z,102677.88
2023-04-03T18:42:38.439Z,102676.78
2023-04-03T18:45:10.298Z,102679.50
2023-04-03T18:47:41.638Z,102681.09
2023-04-03T18:50:12.682Z,102681.34
2023-04-03T18:52:42.684Z,102684.59
2023-04-03T18:55:15.976Z,102686.50
2023-04-03T18:57:48.556Z,102678.09
2023-04-03T19:00:20.834Z,102682.69
2023-04-03T19:02:52.650Z,102682.16
2023-04-03T19:05:24.145Z,102681.03
2023-04-03T19:07:53.995Z,102685.28
2023-04-03T19:10:24.092Z,102687.13
2023-04-03T19:12:56.585Z,102689.19
2023-04-03T19:15:28.357Z,102692.34
2023-04-03T19:17:58.667Z,102698.50
2023-04-03T19:20:28.695Z,102701.97
2023-04-03T19:22:58.651Z,102704.94
2023-04-03T19:25:28.632Z,102705.41
2023-04-03T19:28:01.245Z,102695.84
2023-04-03T19:30:32.194Z,102704.09
2023-04-03T19:33:02.516Z,102703.38
2023-04-03T19:35:32.456Z,102708.25
2023-04-03T19:38:02.460Z,102708.75
2023-04-03T19:40:33.573Z,102701.88
2023-04-03T19:43:06.366Z,102701.81
2023-04-03T19:45:36.451Z,102704.16
2023-04-03T19:48:06.800Z,102707.94
2023-04-03T19:50:37.618Z,102703.59
2023-04-03T19:53:09.836Z,102710.09
2023-04-03T19:55:40.664Z,102699.47
2023-04-03T19:58:13.249Z,102700.28
2023-04-03T20:00:43.808Z,102701.34
2023-04-03T20:03:13.836Z,102695.84
2023-04-03T20:05:43.904Z,102701.69
2023-04-03T20:08:13.775Z,102701.63
2023-04-03T20:10:43.599Z,102694.75
2023-04-03T20:13:16.222Z,102699.84
2023-04-03T20:15:46.657Z,102698.44
2023-04-03T20:18:20.691Z,102700.28
2023-04-03T20:20:56.604Z,102694.44
2023-04-03T20:23:28.363Z,102690.88
2023-04-03T20:26:09.387Z,102689.72
2023-04-03T20:28:45.155Z,102693.97
2023-04-03T20:31:15.730Z,102695.44
2023-04-03T20:33:46.411Z,102701.84
2023-04-03T20:36:16.586Z,102695.63
2023-04-03T20:38:48.372Z,102695.63
2023-04-03T20:41:19.288Z,102698.56
2023-04-03T20:43:51.976Z,102692.84
2023-04-03T20:46:25.512Z,102695.78
2023-04-03T20:48:58.054Z,102700.94
2023-04-03T20:51:28.823Z,102697.41
2023-04-03T20:53:58.764Z,102693.66
2023-04-03T20:56:33.302Z,102691.53
2023-04-03T20:59:06.221Z,102695.56
2023-04-03T21:01:36.535Z,102697.91
2023-04-03T21:04:11.575Z,102690.78
2023-04-03T21:07:11.617Z,102694.94
2023-04-03T21:10:11.502Z,102697.56
2023-04-03T21:13:11.395Z,102695.59
2023-04-03T21:15:52.338Z,102706.56
2023-04-03T21:18:42.470Z,102703.75
2023-04-03T21:21:22.620Z,102704.47
2023-04-03T21:23:55.703Z,102699.31
2023-04-03T21:26:28.595Z,102716.00
2023-04-03T21:28:58.868Z,102716.47
2023-04-03T21:31:59.678Z,102714.16
2023-04-03T21:34:31.148Z,102716.28
2023-04-03T21:37:06.310Z,102716.75
2023-04-03T21:39:36.857Z,102719.94
2023-04-03T21:42:07.717Z,102712.31
2023-04-03T21:44:37.648Z,102718.69
2023-04-03T21:47:11.346Z,102726.16
2023-04-03T21:49:41.837Z,102719.97
2023-04-03T21:52:11.756Z,102722.66
2023-04-03T21:54:41.629Z,102720.78
2023-04-03T21:57:13.705Z,102713.75
2023-04-03T21:59:44.891Z,102714.25
2023-04-03T22:02:17.494Z,102709.31
2023-04-03T22:04:47.825Z,102710.25
2023-04-03T22:07:17.729Z,102715.56
2023-04-03T22:09:47.588Z,102704.66
2023-04-03T22:12:17.489Z,102705.59
2023-04-03T22:14:47.571Z,102703.66
2023-04-03T22:17:20.271Z,102703.78
2023-04-03T22:19:50.215Z,102698.00
2023-04-03T22:22:21.228Z,102693.56
2023-04-03T22:24:52.475Z,102691.59
2023-04-03T22:27:22.445Z,102692.53
2023-04-03T22:29:52.367Z,102691.34
2023-04-03T22:32:25.073Z,102679.41
2023-04-03T22:34:55.124Z,102690.03
2023-04-03T22:37:26.878Z,102683.47
2023-04-03T22:39:58.043Z,102678.00
2023-04-03T22:42:28.075Z,102684.88
2023-04-03T22:44:58.483Z,102681.00
2023-04-03T22:47:31.638Z,102691.44
2023-04-03T22:50:02.772Z,102687.94
2023-04-03T22:52:32.717Z,102693.31
2023-04-03T22:55:18.098Z,102691.44
2023-04-03T22:57:49.330Z,102689.00
2023-04-03T23:00:20.917Z,102692.13
2023-04-03T23:02:53.487Z,102697.41
2023-04-03T23:05:23.862Z,102688.97
2023-04-03T23:07:53.748Z,102693.41
2023-04-03T23:10:26.664Z,102694.13
2023-04-03T23:12:56.900Z,102696.44
2023-04-03T23:15:27.449Z,102691.97
2023-04-03T23:18:00.140Z,102694.56
2023-04-03T23:20:30.038Z,102696.06
2023-04-03T23:22:59.976Z,102700.03
2023-04-03T23:25:30.013Z,102689.94
2023-04-03T23:27:59.975Z,102691.47
2023-04-03T23:30:29.964Z,102691.91
2023-04-03T23:33:02.639Z,102692.38
2023-04-03T23:35:32.937Z,102691.78
2023-04-03T23:38:05.298Z,102693.31
2023-04-03T23:40:35.256Z,102687.78
2023-04-03T23:43:05.145Z,102686.38
2023-04-03T23:45:37.145Z,102685.19
2023-04-03T23:48:10.184Z,102695.59
2023-04-03T23:50:42.526Z,102685.25
2023-04-03T23:53:13.690Z,102692.16
2023-04-03T23:55:44.160Z,102696.50
2023-04-03T23:58:14.570Z,102699.78
